Weather History for Allentown, PA

Change the Weather History Date:

Monday, November 5, 2012

  Actual Average (KABE) Record (KABE)
Temperature  
Mean Temperature 36 °F 46 °F  
Max Temperature 41 °F 57 °F 75 °F (1994)
Min Temperature 32 °F 36 °F 22 °F (1952)
Degree Days  
Heating Degree Days 28 19  
Month to date heating degree days 91  
Since 1 July heating degree days 602  
Cooling Degree Days 0 0  
Month to date cooling degree days 0  
Year to date cooling degree days 757  
Moisture  
Dew Point 24 °F    
Average Humidity 59    
Maximum Humidity 65    
Minimum Humidity 49    
Precipitation  
Precipitation 0.00 in 0.11 in 0.83 in (1986)
Month to date precipitation 0.55  
Year to date precipitation 38.82  
Snow  
Snow 0.00 in 0.00 in T in (1986)
Month to date snowfall 0.0  
Since 1 July snowfall 0.0  
Since 1 September snowfall 0.0  
Snow Depth -    
Sea Level Pressure  
Sea Level Pressure 30.09 in    
Wind  
Wind Speed 8 mph (NNW)    
Max Wind Speed 14 mph    
Max Gust Speed 20 mph    
Visibility 10 miles    
Events      
T = Trace of Precipitation, MM = Missing Value Source: NWS Daily Summary

Daily Weather History Graph

Daily Weather History Graph

Search for Another Location

Airport:

Trip Planner

Search our weather history database for the weather conditions in past years. The results will help you decide how hot, cold, wet, or windy it might be!

Date:

Astronomy

Nov. 05, 2012 Rise Set
Actual Time 6:37 AM EST 4:53 PM EST
Civil Twilight 6:08 AM EST 5:21 PM EST
Nautical Twilight 5:36 AM EST 5:54 PM EST
Astronomical Twilight 5:04 AM EST 6:26 PM EST
Moon 10:28 PM EST (11/5) 11:55 AM EST (11/5)
Length of Visible Light 11h 13m
Length of Day
10h 16m
Waning Gibbous, 63% of the Moon is Illuminated
Nov 5
Waning Gibbous
Nov 6
Last Quarter
Nov 13
New
Nov 20
First Quarter
Nov 28
Full

Hourly Weather History & Observations

Time (EST) Temp. Windchill Dew Point Humidity Pressure Visibility Wind Dir Wind Speed Gust Speed Precip Events Conditions
12:15 AM 37.4 °F 29.8 °F 26.6 °F 65% 30.04 in 10.0 mi NNW 11.5 mph - N/A   Overcast
12:35 AM 37.4 °F 31.4 °F 26.6 °F 65% 30.04 in 10.0 mi NNW 8.1 mph - N/A   Overcast
12:55 AM 37.4 °F 31.4 °F 26.6 °F 65% 30.04 in 10.0 mi NNW 8.1 mph - N/A   Overcast
1:15 AM 37.4 °F 30.8 °F 26.6 °F 65% 30.03 in 10.0 mi NNW 9.2 mph - N/A   Overcast
1:35 AM 35.6 °F 28.6 °F 24.8 °F 65% 30.03 in 10.0 mi NNW 9.2 mph - N/A   Overcast
1:55 AM 35.6 °F 29.2 °F 24.8 °F 65% 30.03 in 10.0 mi NNW 8.1 mph - N/A   Overcast
2:15 AM 35.6 °F 28.6 °F 24.8 °F 65% 30.03 in 10.0 mi NNW 9.2 mph - N/A   Overcast
2:35 AM 35.6 °F 28.6 °F 24.8 °F 65% 30.03 in 10.0 mi NW 9.2 mph - N/A   Overcast
3:15 AM 35.6 °F 29.9 °F 24.8 °F 65% 30.02 in 10.0 mi NNW 6.9 mph - N/A   Overcast
3:35 AM 35.6 °F 28.6 °F 24.8 °F 65% 30.03 in 10.0 mi NW 9.2 mph - N/A   Overcast
3:55 AM 35.6 °F 29.9 °F 24.8 °F 65% 30.03 in 10.0 mi NW 6.9 mph - N/A   Overcast
4:15 AM 35.6 °F 31.7 °F 23.0 °F 60% 30.04 in 10.0 mi NW 4.6 mph - N/A   Overcast
4:35 AM 35.6 °F 31.7 °F 24.8 °F 65% 30.04 in 10.0 mi NW 4.6 mph - N/A   Overcast
4:55 AM 35.6 °F 30.7 °F 23.0 °F 60% 30.04 in 10.0 mi NW 5.8 mph - N/A   Overcast
5:15 AM 35.6 °F 31.7 °F 24.8 °F 65% 30.04 in 10.0 mi NNW 4.6 mph - N/A   Overcast
5:35 AM 35.6 °F 31.7 °F 24.8 °F 65% 30.04 in 10.0 mi NNW 4.6 mph - N/A   Overcast
5:55 AM 35.6 °F 29.2 °F 24.8 °F 65% 30.05 in 10.0 mi NW 8.1 mph - N/A   Overcast
6:15 AM 35.6 °F 28.6 °F 24.8 °F 65% 30.05 in 10.0 mi North 9.2 mph - N/A   Overcast
6:35 AM 35.6 °F 28.6 °F 23.0 °F 60% 30.05 in 10.0 mi NNW 9.2 mph - N/A   Overcast
6:55 AM 35.6 °F 29.2 °F 24.8 °F 65% 30.06 in 10.0 mi NNW 8.1 mph - N/A   Overcast
7:15 AM 35.6 °F 30.7 °F 24.8 °F 65% 30.06 in 10.0 mi NNW 5.8 mph - N/A   Overcast
7:35 AM 35.6 °F 30.7 °F 24.8 °F 65% 30.07 in 10.0 mi NNW 5.8 mph - N/A   Overcast
7:55 AM 35.6 °F 29.9 °F 24.8 °F 65% 30.08 in 10.0 mi NNW 6.9 mph - N/A   Overcast
8:15 AM 35.6 °F 29.9 °F 24.8 °F 65% 30.08 in 10.0 mi NNW 6.9 mph - N/A   Overcast
8:35 AM 35.6 °F 27.5 °F 23.0 °F 60% 30.09 in 10.0 mi North 11.5 mph 18.4 mph N/A   Overcast
8:55 AM 35.6 °F 28.6 °F 24.8 °F 65% 30.09 in 10.0 mi NNW 9.2 mph 17.3 mph N/A   Overcast
9:15 AM 37.4 °F 31.4 °F 24.8 °F 60% 30.08 in 10.0 mi North 8.1 mph - N/A   Overcast
9:35 AM 37.4 °F 30.8 °F 24.8 °F 60% 30.09 in 10.0 mi NW 9.2 mph - N/A   Overcast
9:55 AM 37.4 °F 30.8 °F 24.8 °F 60% 30.09 in 10.0 mi NNW 9.2 mph - N/A   Overcast
10:15 AM 37.4 °F 30.8 °F 24.8 °F 60% 30.09 in 10.0 mi NW 9.2 mph - N/A   Overcast
10:35 AM 37.4 °F 31.4 °F 24.8 °F 60% 30.09 in 10.0 mi North 8.1 mph - N/A   Overcast
10:55 AM 37.4 °F 30.8 °F 24.8 °F 60% 30.09 in 10.0 mi NNW 9.2 mph - N/A   Overcast
11:15 AM 39.2 °F 33.6 °F 24.8 °F 56% 30.09 in 10.0 mi NNW 8.1 mph - N/A   Overcast
11:35 AM 39.2 °F 31.2 °F 24.8 °F 56% 30.08 in 10.0 mi NW 13.8 mph - N/A   Overcast
11:55 AM 39.2 °F 31.2 °F 24.8 °F 56% 30.08 in 10.0 mi NW 13.8 mph - N/A   Overcast
12:15 PM 39.2 °F 32.5 °F 24.8 °F 56% 30.07 in 10.0 mi NNW 10.4 mph - N/A   Overcast
12:35 PM 41.0 °F 35.2 °F 24.8 °F 53% 30.07 in 10.0 mi North 9.2 mph 17.3 mph N/A   Overcast
12:55 PM 41.0 °F 34.3 °F 26.6 °F 57% 30.07 in 10.0 mi NW 11.5 mph - N/A   Overcast
1:15 PM 41.0 °F 34.7 °F 24.8 °F 53% 30.06 in 10.0 mi NNW 10.4 mph 18.4 mph N/A   Overcast
1:35 PM 41.0 °F 35.2 °F 24.8 °F 53% 30.06 in 10.0 mi NNW 9.2 mph - N/A   Overcast
1:55 PM 41.0 °F 34.7 °F 26.6 °F 57% 30.06 in 10.0 mi North 10.4 mph 18.4 mph N/A   Overcast
2:15 PM 39.2 °F 31.6 °F 26.6 °F 61% 30.07 in 10.0 mi North 12.7 mph 19.6 mph N/A   Overcast
2:35 PM 41.0 °F 34.7 °F 26.6 °F 57% 30.07 in 10.0 mi North 10.4 mph - N/A   Overcast
2:55 PM 41.0 °F 35.2 °F 26.6 °F 57% 30.07 in 7.0 mi NNW 9.2 mph - N/A   Overcast
3:15 PM 41.0 °F 34.7 °F 24.8 °F 53% 30.08 in 10.0 mi NNW 10.4 mph - N/A   Overcast
3:35 PM 41.0 °F 34.7 °F 23.0 °F 49% 30.08 in 10.0 mi NW 10.4 mph - N/A   Overcast
3:55 PM 41.0 °F 34.7 °F 24.8 °F 53% 30.08 in 10.0 mi North 10.4 mph - N/A   Overcast
4:15 PM 39.2 °F 33.0 °F 23.0 °F 52% 30.08 in 10.0 mi NNW 9.2 mph 16.1 mph N/A   Overcast
4:35 PM 39.2 °F 32.5 °F 23.0 °F 52% 30.09 in 10.0 mi NNW 10.4 mph 17.3 mph N/A   Overcast
5:15 PM 37.4 °F 31.4 °F 23.0 °F 56% 30.10 in 10.0 mi NNW 8.1 mph - N/A   Overcast
5:35 PM 37.4 °F 32.1 °F 23.0 °F 56% 30.11 in 10.0 mi NNW 6.9 mph - N/A   Overcast
5:55 PM 37.4 °F 31.4 °F 23.0 °F 56% 30.11 in 10.0 mi North 8.1 mph - N/A   Overcast
6:15 PM 37.4 °F 30.8 °F 23.0 °F 56% 30.12 in 10.0 mi NNW 9.2 mph - N/A   Overcast
6:35 PM 37.4 °F 30.3 °F 21.2 °F 52% 30.13 in 10.0 mi North 10.4 mph 16.1 mph N/A   Overcast
6:55 PM 37.4 °F 30.3 °F 21.2 °F 52% 30.14 in 10.0 mi North 10.4 mph 17.3 mph N/A   Overcast
7:15 PM 37.4 °F 31.4 °F 21.2 °F 52% 30.14 in 10.0 mi North 8.1 mph - N/A   Overcast
7:35 PM 37.4 °F 30.3 °F 21.2 °F 52% 30.14 in 10.0 mi NNW 10.4 mph - N/A   Overcast
7:55 PM 37.4 °F 30.8 °F 21.2 °F 52% 30.15 in 10.0 mi NW 9.2 mph 18.4 mph N/A   Overcast
8:15 PM 35.6 °F 29.2 °F 21.2 °F 56% 30.16 in 10.0 mi NNW 8.1 mph - N/A   Overcast
8:35 PM 35.6 °F 29.9 °F 21.2 °F 56% 30.17 in 10.0 mi NNW 6.9 mph - N/A   Overcast
8:55 PM 35.6 °F 30.7 °F 19.4 °F 52% 30.18 in 10.0 mi NNW 5.8 mph - N/A   Overcast
9:15 PM 33.8 °F 28.6 °F 19.4 °F 56% 30.18 in 10.0 mi NNW 5.8 mph - N/A   Mostly Cloudy
9:35 PM 33.8 °F 27.7 °F 19.4 °F 56% 30.18 in 10.0 mi NNW 6.9 mph - N/A   Mostly Cloudy
9:55 PM 33.8 °F 28.6 °F 19.4 °F 56% 30.18 in 10.0 mi NNW 5.8 mph - N/A   Mostly Cloudy
10:15 PM 32.0 °F 28.7 °F 21.2 °F 64% 30.19 in 10.0 mi NNW 3.5 mph - N/A   Mostly Cloudy
10:35 PM 33.8 °F - 19.4 °F 56% 30.19 in 10.0 mi Calm Calm - N/A   Overcast
10:55 PM 33.8 °F 30.8 °F 21.2 °F 60% 30.19 in 10.0 mi North 3.5 mph - N/A   Overcast
11:15 PM 33.8 °F - 21.2 °F 60% 30.19 in 10.0 mi Calm Calm - N/A   Overcast
11:35 PM 33.8 °F 30.8 °F 21.2 °F 60% 30.20 in 10.0 mi North 3.5 mph - N/A   Overcast
11:55 PM 33.8 °F 29.6 °F 21.2 °F 60% 30.20 in 10.0 mi NNE 4.6 mph - N/A   Overcast